createdAt,value
2018-03-01T00:02:22.024Z,18.10
2018-03-01T00:04:50.075Z,18.10
2018-03-01T00:07:18.119Z,18.10
2018-03-01T00:09:46.161Z,18.00
2018-03-01T00:12:14.213Z,18.00
2018-03-01T00:14:42.325Z,18.00
2018-03-01T00:17:10.395Z,17.90
2018-03-01T00:19:38.459Z,17.90
2018-03-01T00:22:06.525Z,17.90
2018-03-01T00:24:34.551Z,17.90
2018-03-01T00:27:02.575Z,17.80
2018-03-01T00:29:30.615Z,17.80
2018-03-01T00:31:58.645Z,17.80
2018-03-01T00:34:26.725Z,17.70
2018-03-01T00:36:54.821Z,17.70
2018-03-01T00:39:22.864Z,17.70
2018-03-01T00:41:50.907Z,17.70
2018-03-01T00:44:18.938Z,17.60
2018-03-01T00:46:47.783Z,17.60
2018-03-01T00:49:15.840Z,17.60
2018-03-01T00:51:43.871Z,17.60
2018-03-01T00:54:12.676Z,17.50
2018-03-01T00:56:40.714Z,17.50
2018-03-01T00:59:08.783Z,17.50
2018-03-01T01:01:36.808Z,17.50
2018-03-01T01:04:04.862Z,17.40
2018-03-01T01:06:32.886Z,17.40
2018-03-01T01:09:00.932Z,17.40
2018-03-01T01:11:29.008Z,17.40
2018-03-01T01:13:57.049Z,17.30
2018-03-01T01:16:25.142Z,17.30
2018-03-01T01:18:53.216Z,17.30
2018-03-01T01:21:22.014Z,17.20
2018-03-01T01:23:50.118Z,17.20
2018-03-01T01:26:18.150Z,17.20
2018-03-01T01:28:46.200Z,17.20
2018-03-01T01:31:14.294Z,17.10
2018-03-01T01:33:42.318Z,17.10
2018-03-01T01:36:10.409Z,17.10
2018-03-01T01:38:38.446Z,17.10
2018-03-01T01:41:06.518Z,17.10
2018-03-01T01:43:36.074Z,17.00
2018-03-01T01:46:04.127Z,17.00
2018-03-01T01:48:32.234Z,17.00
2018-03-01T01:51:00.265Z,17.00
2018-03-01T01:53:28.311Z,16.90
2018-03-01T01:55:56.343Z,16.90
2018-03-01T01:58:24.361Z,16.90
2018-03-01T02:00:53.226Z,16.80
2018-03-01T02:03:21.259Z,16.80
2018-03-01T02:05:49.289Z,16.80
2018-03-01T02:08:17.344Z,16.80
2018-03-01T02:10:45.373Z,16.80
2018-03-01T02:13:14.212Z,16.70
2018-03-01T02:15:42.263Z,16.70
2018-03-01T02:18:10.309Z,16.70
2018-03-01T02:20:38.373Z,16.70
2018-03-01T02:23:06.409Z,16.60
2018-03-01T02:25:34.446Z,16.60
2018-03-01T02:28:02.529Z,16.60
2018-03-01T02:30:30.561Z,16.60
2018-03-01T02:32:58.588Z,16.60
2018-03-01T02:35:26.631Z,16.50
2018-03-01T02:37:54.661Z,16.50
2018-03-01T02:40:22.733Z,16.50
2018-03-01T02:42:50.795Z,16.50
2018-03-01T02:45:18.853Z,16.50
2018-03-01T02:47:46.895Z,16.40
2018-03-01T02:50:14.941Z,16.40
2018-03-01T02:52:43.005Z,16.40
2018-03-01T02:55:11.044Z,16.30
2018-03-01T02:57:39.084Z,16.30
2018-03-01T03:00:07.128Z,16.30
2018-03-01T03:02:35.161Z,16.30
2018-03-01T03:05:03.225Z,16.30
2018-03-01T03:07:31.262Z,16.20
2018-03-01T03:09:59.284Z,16.20
2018-03-01T03:12:27.320Z,16.20
2018-03-01T03:14:55.362Z,16.20
2018-03-01T03:17:23.434Z,16.20
2018-03-01T03:19:51.501Z,16.10
2018-03-01T03:22:19.585Z,16.10
2018-03-01T03:24:47.626Z,16.10
2018-03-01T03:27:15.694Z,16.10
2018-03-01T03:29:43.729Z,16.10
2018-03-01T03:32:11.848Z,16.00
2018-03-01T03:34:39.934Z,16.00
2018-03-01T03:37:07.981Z,16.00
2018-03-01T03:39:36.068Z,16.00
2018-03-01T03:42:04.911Z,15.90
2018-03-01T03:44:32.943Z,15.90
2018-03-01T03:47:01.048Z,15.90
2018-03-01T03:49:29.080Z,16.10
2018-03-01T03:51:57.142Z,16.40
2018-03-01T03:54:25.199Z,16.50
2018-03-01T03:56:54.008Z,17.20
2018-03-01T03:59:22.101Z,17.20
2018-03-01T04:01:50.152Z,17.70
2018-03-01T04:04:18.271Z,18.00
2018-03-01T04:06:46.311Z,18.30
2018-03-01T04:09:14.426Z,18.60
2018-03-01T04:11:42.463Z,18.80
2018-03-01T04:14:10.509Z,18.90
2018-03-01T04:16:38.570Z,19.10
2018-03-01T04:19:06.635Z,19.20
2018-03-01T04:21:34.667Z,19.30
2018-03-01T04:24:02.719Z,19.60
2018-03-01T04:26:30.759Z,19.60
2018-03-01T04:28:59.572Z,19.70
2018-03-01T04:31:29.196Z,19.70
2018-03-01T04:34:00.491Z,19.80
2018-03-01T04:36:29.479Z,20.00
2018-03-01T04:38:57.531Z,20.20
2018-03-01T04:41:25.566Z,20.20
2018-03-01T04:43:53.594Z,20.10
2018-03-01T04:46:22.444Z,19.70
2018-03-01T04:48:50.476Z,19.70
2018-03-01T04:51:18.516Z,19.80
2018-03-01T04:53:46.565Z,19.90
2018-03-01T04:56:14.601Z,20.10
2018-03-01T04:58:42.822Z,20.30
2018-03-01T05:01:10.844Z,20.50
2018-03-01T05:03:39.633Z,20.90
2018-03-01T05:06:08.433Z,21.00
2018-03-01T05:08:36.473Z,21.00
2018-03-01T05:11:05.306Z,21.20
2018-03-01T05:13:33.335Z,21.20
2018-03-01T05:16:01.368Z,21.20
2018-03-01T05:18:29.407Z,21.20
2018-03-01T05:20:57.432Z,21.10
2018-03-01T05:23:25.486Z,21.10
2018-03-01T05:25:53.542Z,21.10
2018-03-01T05:28:21.610Z,20.60
2018-03-01T05:30:49.689Z,20.20
2018-03-01T05:33:17.824Z,20.10
2018-03-01T05:35:45.878Z,20.10
2018-03-01T05:38:13.900Z,20.10
2018-03-01T05:40:41.940Z,20.10
2018-03-01T05:43:10.744Z,20.00
2018-03-01T05:45:38.796Z,20.00
2018-03-01T05:48:06.849Z,20.00
2018-03-01T05:50:34.872Z,20.00
2018-03-01T05:53:02.938Z,20.00
2018-03-01T05:55:30.964Z,19.90
2018-03-01T05:57:58.996Z,19.90
2018-03-01T06:00:27.100Z,19.90
2018-03-01T06:02:55.183Z,19.90
2018-03-01T06:05:23.231Z,19.90
2018-03-01T06:07:51.280Z,19.90
2018-03-01T06:10:19.294Z,19.70
2018-03-01T06:12:47.393Z,19.70
2018-03-01T06:15:15.423Z,19.60
2018-03-01T06:17:43.467Z,19.60
2018-03-01T06:20:11.489Z,19.60
2018-03-01T06:22:39.545Z,19.60
2018-03-01T06:25:08.388Z,19.50
2018-03-01T06:27:36.431Z,19.50
2018-03-01T06:30:05.971Z,19.40
2018-03-01T06:32:34.017Z,19.40
2018-03-01T06:35:02.061Z,19.50
2018-03-01T06:37:30.117Z,19.40
2018-03-01T06:39:58.163Z,19.50
2018-03-01T06:42:26.204Z,19.60
2018-03-01T06:44:54.218Z,19.70
2018-03-01T06:47:22.252Z,19.80
2018-03-01T06:49:50.413Z,19.80
2018-03-01T06:52:21.785Z,19.20
2018-03-01T06:54:53.736Z,19.10
2018-03-01T06:57:25.272Z,19.00
2018-03-01T06:59:55.267Z,19.10
2018-03-01T07:02:23.778Z,19.10
2018-03-01T07:04:52.612Z,19.20
2018-03-01T07:07:20.696Z,19.10
2018-03-01T07:09:48.789Z,19.20
2018-03-01T07:12:16.991Z,19.20
2018-03-01T07:14:45.047Z,19.20
2018-03-01T07:17:13.104Z,19.20
2018-03-01T07:19:41.188Z,19.20
2018-03-01T07:22:09.230Z,19.00
2018-03-01T07:24:37.276Z,18.90
2018-03-01T07:27:05.367Z,18.80
2018-03-01T07:29:33.455Z,18.80
2018-03-01T07:32:01.627Z,18.80
2018-03-01T07:34:29.680Z,18.90
2018-03-01T07:36:57.756Z,19.00
2018-03-01T07:39:25.794Z,19.00
2018-03-01T07:41:54.633Z,19.10
2018-03-01T07:44:22.966Z,19.10
2018-03-01T07:46:51.014Z,19.10
2018-03-01T07:49:19.036Z,19.00
2018-03-01T07:51:47.088Z,19.10
2018-03-01T07:54:15.161Z,19.10
2018-03-01T07:56:43.220Z,19.10
2018-03-01T07:59:11.261Z,19.00
2018-03-01T08:01:39.300Z,19.10
2018-03-01T08:04:07.319Z,19.00
2018-03-01T08:06:35.404Z,19.00
2018-03-01T08:09:03.438Z,19.00
2018-03-01T08:11:31.503Z,19.00
2018-03-01T08:13:59.566Z,19.10
2018-03-01T08:16:27.612Z,19.10
2018-03-01T08:18:55.678Z,19.10
2018-03-01T08:21:23.740Z,19.00
2018-03-01T08:23:51.797Z,19.10
2018-03-01T08:26:19.831Z,19.20
2018-03-01T08:28:47.873Z,19.10
2018-03-01T08:31:15.940Z,19.10
2018-03-01T08:33:44.740Z,19.20
2018-03-01T08:36:12.805Z,19.10
2018-03-01T08:38:41.051Z,19.20
2018-03-01T08:41:09.110Z,19.20
2018-03-01T08:43:37.186Z,19.20
2018-03-01T08:46:05.225Z,19.20
2018-03-01T08:48:33.286Z,19.20
2018-03-01T08:51:01.319Z,19.20
2018-03-01T08:53:29.351Z,19.20
2018-03-01T08:55:57.373Z,19.20
2018-03-01T08:58:25.430Z,19.20
2018-03-01T09:00:53.495Z,19.20
2018-03-01T09:03:21.565Z,19.30
2018-03-01T09:05:51.116Z,19.40
2018-03-01T09:08:19.184Z,19.40
2018-03-01T09:10:47.209Z,19.40
2018-03-01T09:13:15.266Z,19.50
2018-03-01T09:15:43.317Z,19.50
2018-03-01T09:18:11.370Z,19.50
2018-03-01T09:20:39.399Z,19.50
2018-03-01T09:23:07.433Z,19.50
2018-03-01T09:25:35.507Z,19.50
2018-03-01T09:28:03.541Z,19.50
2018-03-01T09:30:31.602Z,19.50
2018-03-01T09:32:59.605Z,19.50
2018-03-01T09:35:27.646Z,19.50
2018-03-01T09:37:55.700Z,19.50
2018-03-01T09:40:23.732Z,19.50
2018-03-01T09:42:51.789Z,19.60
2018-03-01T09:45:19.837Z,19.60
2018-03-01T09:47:48.624Z,19.60
2018-03-01T09:50:16.707Z,19.60
2018-03-01T09:52:45.509Z,19.60
2018-03-01T09:55:13.542Z,19.50
2018-03-01T09:57:41.620Z,19.40
2018-03-01T10:00:11.150Z,18.70
2018-03-01T10:02:39.472Z,18.70
2018-03-01T10:05:07.611Z,18.70
2018-03-01T10:07:36.471Z,19.10
2018-03-01T10:10:04.489Z,19.10
2018-03-01T10:12:32.574Z,19.20
2018-03-01T10:15:00.645Z,19.30
2018-03-01T10:17:28.742Z,19.40
2018-03-01T10:19:56.788Z,19.40
2018-03-01T10:22:24.848Z,19.50
2018-03-01T10:24:52.921Z,19.50
2018-03-01T10:27:20.983Z,19.40
2018-03-01T10:29:49.034Z,19.40
2018-03-01T10:32:17.090Z,19.50
2018-03-01T10:34:45.920Z,19.40
2018-03-01T10:37:13.997Z,19.40
2018-03-01T10:39:42.063Z,19.40
2018-03-01T10:42:10.131Z,19.40
2018-03-01T10:44:38.182Z,19.40
2018-03-01T10:47:06.226Z,19.40
2018-03-01T10:49:34.282Z,19.40
2018-03-01T10:52:02.355Z,19.40
2018-03-01T10:54:30.387Z,19.40
2018-03-01T10:56:58.421Z,19.40
2018-03-01T10:59:27.684Z,19.40
2018-03-01T11:02:00.022Z,19.40
2018-03-01T11:04:30.717Z,19.40
2018-03-01T11:06:58.761Z,19.40
2018-03-01T11:09:27.021Z,19.40
2018-03-01T11:11:55.104Z,19.50
2018-03-01T11:14:23.995Z,19.50
2018-03-01T11:16:52.042Z,19.50
2018-03-01T11:19:20.106Z,19.50
2018-03-01T11:21:48.183Z,19.50
2018-03-01T11:24:16.217Z,19.50
2018-03-01T11:26:44.301Z,19.50
2018-03-01T11:29:14.697Z,19.50
2018-03-01T11:31:43.324Z,19.50
2018-03-01T11:34:11.412Z,19.60
2018-03-01T11:36:39.511Z,19.60
2018-03-01T11:39:07.586Z,19.60
2018-03-01T11:41:35.667Z,19.70
2018-03-01T11:44:03.725Z,19.70
2018-03-01T11:46:31.796Z,19.70
2018-03-01T11:48:59.952Z,19.70
2018-03-01T11:51:28.050Z,19.70
2018-03-01T11:53:56.121Z,19.70
2018-03-01T11:56:24.200Z,19.70
2018-03-01T11:58:52.240Z,19.70
2018-03-01T12:01:20.486Z,19.80
2018-03-01T12:03:48.548Z,19.80
2018-03-01T12:06:16.596Z,19.70
2018-03-01T12:08:44.672Z,19.70
2018-03-01T12:11:12.750Z,19.70
2018-03-01T12:13:40.862Z,19.70
2018-03-01T12:16:08.919Z,19.70
2018-03-01T12:18:37.047Z,19.70
2018-03-01T12:21:05.114Z,19.70
2018-03-01T12:23:33.632Z,19.60
2018-03-01T12:26:01.734Z,19.60
2018-03-01T12:28:29.796Z,19.60
2018-03-01T12:30:57.892Z,19.60
2018-03-01T12:33:25.942Z,19.60
2018-03-01T12:35:53.997Z,19.60
2018-03-01T12:38:22.183Z,19.60
2018-03-01T12:40:50.245Z,19.60
2018-03-01T12:43:18.826Z,19.60
2018-03-01T12:45:46.889Z,19.60
2018-03-01T12:48:14.957Z,19.60
2018-03-01T12:50:43.017Z,19.50
2018-03-01T12:53:11.075Z,19.50
2018-03-01T12:55:39.157Z,19.50
2018-03-01T12:58:07.196Z,19.50
2018-03-01T13:00:35.257Z,19.50
2018-03-01T13:03:03.338Z,19.50
2018-03-01T13:05:31.446Z,19.50
2018-03-01T13:07:59.517Z,19.50
2018-03-01T13:10:29.356Z,19.40
2018-03-01T13:12:57.450Z,19.40
2018-03-01T13:15:25.503Z,19.40
2018-03-01T13:17:53.542Z,19.40
2018-03-01T13:20:21.609Z,19.40
2018-03-01T13:22:49.668Z,19.40
2018-03-01T13:25:17.710Z,19.40
2018-03-01T13:27:45.745Z,19.40
2018-03-01T13:30:14.784Z,19.40
2018-03-01T13:32:44.616Z,19.40
2018-03-01T13:38:13.704Z,19.30
2018-03-01T13:40:41.810Z,19.30
2018-03-01T13:43:12.263Z,19.30
2018-03-01T13:45:40.630Z,19.30
2018-03-01T13:48:08.704Z,19.30
2018-03-01T13:50:36.806Z,19.30
2018-03-01T13:53:05.073Z,19.30
2018-03-01T13:55:34.633Z,19.30
2018-03-01T13:58:02.779Z,19.30
2018-03-01T14:00:30.827Z,19.30
2018-03-01T14:02:58.912Z,19.30
2018-03-01T14:05:26.984Z,19.30
2018-03-01T14:07:55.973Z,19.30
2018-03-01T14:10:24.044Z,19.30
2018-03-01T14:12:54.561Z,19.30
2018-03-01T14:15:22.677Z,19.30
2018-03-01T14:17:52.038Z,19.30
2018-03-01T14:23:39.616Z,19.30
2018-03-01T14:26:14.144Z,19.30
2018-03-01T14:28:42.190Z,19.30
2018-03-01T14:31:10.253Z,19.30
2018-03-01T14:33:38.319Z,19.30
2018-03-01T14:36:06.375Z,19.30
2018-03-01T14:38:34.440Z,19.20
2018-03-01T14:41:02.506Z,19.20
2018-03-01T14:43:30.643Z,19.20
2018-03-01T14:45:58.702Z,19.20
2018-03-01T14:48:26.745Z,19.20
2018-03-01T14:50:55.045Z,19.20
2018-03-01T14:53:23.137Z,19.20
2018-03-01T14:55:51.199Z,19.20
2018-03-01T14:58:19.286Z,19.20
2018-03-01T15:00:47.356Z,19.30
2018-03-01T15:03:15.420Z,19.20
2018-03-01T15:05:43.475Z,18.90
2018-03-01T15:08:11.501Z,18.90
2018-03-01T15:10:39.565Z,18.90
2018-03-01T15:13:07.836Z,18.90
2018-03-01T15:15:35.976Z,18.90
2018-03-01T15:18:04.362Z,18.90
2018-03-01T15:20:32.426Z,18.90
2018-03-01T15:23:00.497Z,18.90
2018-03-01T15:25:28.575Z,18.90
2018-03-01T15:27:57.450Z,18.90
2018-03-01T15:30:25.522Z,18.90
2018-03-01T15:32:53.607Z,18.90
2018-03-01T15:35:21.680Z,18.80
2018-03-01T15:37:49.753Z,18.80
2018-03-01T15:40:17.801Z,18.80
2018-03-01T15:42:45.861Z,18.80
2018-03-01T15:45:14.691Z,18.60
2018-03-01T15:47:42.784Z,18.50
2018-03-01T15:50:10.888Z,18.50
2018-03-01T15:52:39.718Z,18.60
2018-03-01T15:55:07.801Z,18.50
2018-03-01T15:57:35.861Z,18.60
2018-03-01T16:00:04.039Z,18.50
2018-03-01T16:02:32.126Z,18.50
2018-03-01T16:05:00.230Z,18.30
2018-03-01T16:07:28.354Z,18.20
2018-03-01T16:09:56.467Z,17.80
2018-03-01T16:12:24.523Z,17.60
2018-03-01T16:14:52.601Z,17.70
2018-03-01T16:17:20.655Z,17.80
2018-03-01T16:19:48.699Z,17.80
2018-03-01T16:22:17.231Z,17.80
2018-03-01T16:24:46.104Z,17.80
2018-03-01T16:27:14.195Z,17.90
2018-03-01T16:29:42.271Z,17.90
2018-03-01T16:32:10.333Z,17.90
2018-03-01T16:34:38.397Z,17.90
2018-03-01T16:37:06.455Z,17.90
2018-03-01T16:39:34.571Z,17.90
2018-03-01T16:42:04.095Z,18.10
2018-03-01T16:44:32.935Z,18.30
2018-03-01T16:47:00.978Z,18.20
2018-03-01T16:49:29.019Z,18.30
2018-03-01T16:51:57.049Z,18.40
2018-03-01T16:54:25.130Z,18.40
2018-03-01T16:56:53.223Z,18.40
2018-03-01T16:59:21.316Z,18.40
2018-03-01T17:01:49.365Z,18.50
2018-03-01T17:04:17.426Z,18.50
2018-03-01T17:06:45.527Z,18.50
2018-03-01T17:09:13.593Z,18.50
2018-03-01T17:11:41.656Z,18.50
2018-03-01T17:14:09.734Z,18.50
2018-03-01T17:16:37.789Z,18.50
2018-03-01T17:19:05.879Z,18.50
2018-03-01T17:21:33.985Z,18.50
2018-03-01T17:24:02.047Z,18.60
2018-03-01T17:26:30.081Z,18.60
2018-03-01T17:28:58.106Z,18.60
2018-03-01T17:31:26.212Z,18.60
2018-03-01T17:33:54.273Z,18.70
2018-03-01T17:36:22.324Z,18.70
2018-03-01T17:38:50.386Z,18.80
2018-03-01T17:41:18.456Z,18.80
2018-03-01T17:43:46.899Z,18.90
2018-03-01T17:46:15.218Z,18.90
2018-03-01T17:48:43.429Z,18.90
2018-03-01T17:51:12.522Z,18.90
2018-03-01T17:53:40.590Z,19.00
2018-03-01T17:56:12.088Z,19.00
2018-03-01T17:58:40.137Z,19.00
2018-03-01T18:01:08.178Z,18.90
2018-03-01T18:03:36.229Z,18.90
2018-03-01T18:06:05.071Z,18.90
2018-03-01T18:08:33.386Z,18.90
2018-03-01T18:11:01.444Z,18.80
2018-03-01T18:13:30.266Z,18.90
2018-03-01T18:15:58.327Z,18.90
2018-03-01T18:18:26.682Z,19.00
2018-03-01T18:20:55.538Z,19.00
2018-03-01T18:23:23.591Z,18.90
2018-03-01T18:25:51.656Z,18.90
2018-03-01T18:28:20.473Z,19.00
2018-03-01T18:30:48.547Z,19.00
2018-03-01T18:33:16.899Z,19.00
2018-03-01T18:35:44.929Z,19.00
2018-03-01T18:38:13.046Z,19.00
2018-03-01T18:40:41.311Z,19.00
2018-03-01T18:43:10.279Z,19.10
2018-03-01T18:45:38.352Z,19.10
2018-03-01T18:48:07.167Z,19.00
2018-03-01T18:50:35.269Z,19.00
2018-03-01T18:53:03.357Z,19.00
2018-03-01T18:55:31.418Z,19.00
2018-03-01T18:57:59.513Z,19.00
2018-03-01T19:00:27.574Z,19.10
2018-03-01T19:02:55.656Z,19.10
2018-03-01T19:05:23.735Z,19.20
2018-03-01T19:07:51.810Z,19.20
2018-03-01T19:10:21.424Z,19.20
2018-03-01T19:12:50.667Z,19.00
2018-03-01T19:15:18.758Z,18.90
2018-03-01T19:17:47.724Z,19.00
2018-03-01T19:20:16.254Z,19.10
2018-03-01T19:22:44.289Z,19.10
2018-03-01T19:25:12.305Z,19.10
2018-03-01T19:27:40.408Z,19.10
2018-03-01T19:30:08.530Z,19.10
2018-03-01T19:32:37.670Z,19.10
2018-03-01T19:35:07.884Z,19.10
2018-03-01T19:37:35.950Z,19.10
2018-03-01T19:40:04.023Z,19.10
2018-03-01T19:42:32.066Z,19.10
2018-03-01T19:45:00.110Z,19.10
2018-03-01T19:47:28.183Z,19.10
2018-03-01T19:49:56.246Z,19.10
2018-03-01T19:52:24.311Z,19.20
2018-03-01T19:54:52.385Z,19.20
2018-03-01T19:57:20.456Z,19.20
2018-03-01T19:59:48.523Z,19.20
2018-03-01T20:02:17.342Z,19.20
2018-03-01T20:04:45.405Z,19.20
2018-03-01T20:07:13.445Z,19.20
2018-03-01T20:09:41.525Z,19.20
2018-03-01T20:12:09.600Z,19.20
2018-03-01T20:14:37.737Z,19.20
2018-03-01T20:17:05.799Z,19.20
2018-03-01T20:19:33.870Z,19.20
2018-03-01T20:22:01.934Z,19.10
2018-03-01T20:24:29.998Z,19.20
2018-03-01T20:26:58.039Z,19.10
2018-03-01T20:29:26.103Z,19.10
2018-03-01T20:31:54.151Z,19.20
2018-03-01T20:34:22.382Z,19.10
2018-03-01T20:36:50.461Z,19.20
2018-03-01T20:39:18.529Z,19.20
2018-03-01T20:41:46.608Z,19.20
2018-03-01T20:44:14.675Z,19.20
2018-03-01T20:46:42.771Z,19.20
2018-03-01T20:49:11.102Z,19.20
2018-03-01T20:51:39.341Z,19.20
2018-03-01T20:54:07.448Z,19.20
2018-03-01T20:56:35.542Z,19.20
2018-03-01T20:59:03.593Z,19.20
2018-03-01T21:01:31.642Z,19.20
2018-03-01T21:04:01.143Z,19.20
2018-03-01T21:06:29.166Z,19.20
2018-03-01T21:08:57.233Z,19.10
2018-03-01T21:11:25.295Z,19.10
2018-03-01T21:13:53.384Z,19.10
2018-03-01T21:16:21.454Z,19.00
2018-03-01T21:18:49.522Z,18.90
2018-03-01T21:21:17.630Z,18.90
2018-03-01T21:23:45.682Z,18.80
2018-03-01T21:26:13.737Z,18.80
2018-03-01T21:28:41.796Z,18.70
2018-03-01T21:31:09.833Z,18.70
2018-03-01T21:33:37.903Z,18.70
2018-03-01T21:36:06.018Z,18.70
2018-03-01T21:38:34.067Z,18.60
2018-03-01T21:41:02.872Z,18.40
2018-03-01T21:43:30.901Z,18.40
2018-03-01T21:45:58.937Z,18.40
2018-03-01T21:48:26.999Z,18.30
2018-03-01T21:50:56.547Z,18.30
2018-03-01T21:53:24.640Z,18.20
2018-03-01T21:55:52.658Z,18.20
2018-03-01T21:58:20.702Z,18.10
2018-03-01T22:00:49.619Z,18.40
2018-03-01T22:03:17.683Z,18.40
2018-03-01T22:05:45.726Z,18.50
2018-03-01T22:08:14.516Z,18.60
2018-03-01T22:10:42.555Z,18.60
2018-03-01T22:13:10.858Z,18.60
2018-03-01T22:15:38.900Z,18.60
2018-03-01T22:18:06.946Z,18.60
2018-03-01T22:20:34.980Z,18.60
2018-03-01T22:23:03.769Z,18.60
2018-03-01T22:25:31.824Z,18.60
2018-03-01T22:27:59.842Z,18.60
2018-03-01T22:30:27.863Z,18.50
2018-03-01T22:32:55.905Z,18.60
2018-03-01T22:35:23.925Z,18.60
2018-03-01T22:37:51.997Z,18.50
2018-03-01T22:40:20.053Z,18.50
2018-03-01T22:42:48.101Z,18.50
2018-03-01T22:45:16.145Z,18.50
2018-03-01T22:47:44.187Z,18.50
2018-03-01T22:50:13.017Z,18.40
2018-03-01T22:52:41.808Z,18.40
2018-03-01T22:55:09.839Z,18.40
2018-03-01T22:57:38.843Z,18.40
2018-03-01T23:00:06.858Z,18.40
2018-03-01T23:02:34.929Z,18.40
2018-03-01T23:05:03.762Z,18.30
2018-03-01T23:07:32.551Z,18.30
2018-03-01T23:10:00.567Z,18.30
2018-03-01T23:12:28.633Z,18.30
2018-03-01T23:14:56.686Z,18.30
2018-03-01T23:17:25.482Z,18.20
2018-03-01T23:19:53.698Z,18.20
2018-03-01T23:22:21.710Z,18.20
2018-03-01T23:24:50.504Z,18.20
2018-03-01T23:27:18.574Z,18.10
2018-03-01T23:29:46.632Z,18.10
2018-03-01T23:32:14.658Z,18.10
2018-03-01T23:34:42.689Z,18.10
2018-03-01T23:37:10.762Z,18.10
2018-03-01T23:39:39.574Z,18.00
2018-03-01T23:42:07.602Z,18.00
2018-03-01T23:44:35.625Z,18.00
2018-03-01T23:47:03.668Z,18.00
2018-03-01T23:49:31.694Z,18.00
2018-03-01T23:51:59.823Z,18.00
2018-03-01T23:54:27.882Z,17.90
2018-03-01T23:56:56.678Z,17.90
2018-03-01T23:59:25.787Z,17.80
